Time;durP1;ratioP1;P1;durP2;ratioP2;P2;SDS_P1;SDS_P2;PMS_P1;PMS_P2;Temp;Humidity;BMP_temperature;BMP_pressure;BME280_temperature;BME280_humidity;BME280_pressure;Samples;Min_cycle;Max_cycle;Signal;HPM_P1;HPM_P2
2022/04/12 00:01:01;;;;;;;6.35;1.83;;;;;;;20.28;45.00;101009.09;5014291;28;20014;-58
2022/04/12 00:03:26;;;;;;;4.72;1.85;;;;;;;20.28;44.95;101005.56;5015202;28;20425;-58
2022/04/12 00:05:52;;;;;;;6.22;2.10;;;;;;;20.27;45.23;100998.63;5015106;28;20068;-58
2022/04/12 00:08:18;;;;;;;5.53;2.00;;;;;;;20.25;44.99;101000.56;5014361;28;20052;-58
2022/04/12 00:10:45;;;;;;;6.03;1.83;;;;;;;20.23;45.01;100998.03;5015191;28;20088;-58
2022/04/12 00:13:10;;;;;;;6.35;1.85;;;;;;;20.24;44.92;101004.19;5014619;28;20030;-58
2022/04/12 00:15:35;;;;;;;6.38;2.83;;;;;;;20.21;45.14;100994.69;5014490;28;20030;-58
2022/04/12 00:20:45;;;;;;;6.63;2.05;;;;;;;20.19;45.35;100996.66;5015458;28;20636;-58
2022/04/12 00:23:12;;;;;;;7.25;2.17;;;;;;;20.19;45.42;100991.34;5013789;28;20029;-58
2022/04/12 00:25:37;;;;;;;5.03;1.70;;;;;;;20.17;45.25;100995.97;5014767;28;20030;-58
2022/04/12 00:28:03;;;;;;;4.70;1.80;;;;;;;20.19;45.31;100988.72;5013929;28;20026;-58
2022/04/12 00:30:29;;;;;;;6.15;1.90;;;;;;;20.17;44.89;100989.81;5014603;28;20303;-58
2022/04/12 00:32:54;;;;;;;5.30;2.05;;;;;;;20.16;44.91;100986.34;5014478;28;20111;-58
2022/04/12 00:35:21;;;;;;;6.63;2.30;;;;;;;20.18;45.14;100988.84;5013982;28;20022;-58
2022/04/12 00:37:47;;;;;;;5.60;1.70;;;;;;;20.16;44.93;100993.44;5014705;28;20032;-58
2022/04/12 00:40:14;;;;;;;4.30;1.63;;;;;;;20.15;44.82;100995.22;5014275;28;20109;-58
2022/04/12 00:42:40;;;;;;;5.82;1.77;;;;;;;20.14;44.87;100985.63;5013938;28;20033;-58
2022/04/12 00:45:06;;;;;;;5.47;1.90;;;;;;;20.14;44.63;100992.72;5014354;28;20496;-58
2022/04/12 00:47:31;;;;;;;5.07;2.00;;;;;;;20.12;44.56;100987.56;5014529;28;20101;-58
2022/04/12 00:49:57;;;;;;;7.22;2.28;;;;;;;20.10;45.02;100982.41;5013247;28;20022;-58
2022/04/12 00:52:22;;;;;;;6.47;2.22;;;;;;;20.10;44.78;100985.06;5014358;28;20025;-58
2022/04/12 00:54:49;;;;;;;6.75;2.05;;;;;;;20.10;44.58;100982.41;5014414;28;20026;-57
2022/04/12 00:57:15;;;;;;;4.47;1.90;;;;;;;20.09;44.52;100982.53;5013730;28;20026;-57
2022/04/12 00:59:44;;;;;;;4.95;1.80;;;;;;;20.07;44.58;100992.44;5014453;28;20026;-59
2022/04/12 01:02:09;;;;;;;5.30;1.90;;;;;;;20.06;44.58;100996.03;5013861;28;20092;-57
2022/04/12 01:04:34;;;;;;;6.47;1.98;;;;;;;20.03;44.43;100991.88;5013324;28;20022;-57
2022/04/12 01:07:06;;;;;;;5.57;1.83;;;;;;;20.03;44.34;100988.38;5013855;28;20030;-57
2022/04/12 01:09:31;;;;;;;4.68;1.80;;;;;;;20.05;44.91;100983.78;5013947;28;20026;-57
2022/04/12 01:11:57;;;;;;;5.43;1.73;;;;;;;20.04;44.69;100977.66;5012937;28;20033;-58
2022/04/12 01:14:25;;;;;;;4.63;1.70;;;;;;;20.03;44.77;100970.69;5014016;28;20318;-58
2022/04/12 01:16:51;;;;;;;4.40;1.70;;;;;;;20.03;44.70;100972.53;5013751;28;20107;-57
2022/04/12 01:19:19;;;;;;;3.83;1.60;;;;;;;20.03;44.70;100970.69;5013205;28;20378;-57
2022/04/12 01:21:56;;;;;;;4.43;1.75;;;;;;;20.00;44.50;100981.56;5013141;28;20041;-57
2022/04/12 01:24:22;;;;;;;5.32;1.85;;;;;;;20.02;44.42;100981.41;5013212;28;20033;-57
2022/04/12 01:26:47;;;;;;;4.10;1.58;;;;;;;20.00;44.61;100978.91;5014056;28;20018;-58
2022/04/12 01:29:16;;;;;;;7.82;2.00;;;;;;;19.99;44.45;100977.22;5013466;28;20036;-57
2022/04/12 01:31:42;;;;;;;4.55;1.80;;;;;;;19.97;44.35;100971.22;5013017;28;20492;-57
2022/04/12 01:34:07;;;;;;;5.68;1.88;;;;;;;19.99;44.57;100973.75;5013381;28;20105;-57
2022/04/12 01:36:32;;;;;;;7.75;2.17;;;;;;;19.97;44.19;100973.06;5013532;28;20026;-57
2022/04/12 01:38:58;;;;;;;4.43;1.73;;;;;;;19.96;44.62;100966.91;5012583;28;20026;-57
2022/04/12 01:41:23;;;;;;;6.13;1.98;;;;;;;19.94;44.62;100968.84;5013434;28;20039;-58
2022/04/12 01:43:48;;;;;;;7.28;1.83;;;;;;;19.93;44.87;100975.97;5013355;28;20030;-58
2022/04/12 01:46:13;;;;;;;5.45;2.00;;;;;;;19.94;44.48;100971.50;5012973;28;20064;-58
2022/04/12 01:48:39;;;;;;;6.37;2.20;;;;;;;19.92;44.24;100970.81;5013460;28;20470;-58
2022/04/12 01:51:04;;;;;;;5.63;1.58;;;;;;;19.94;44.20;100971.50;5012936;28;20278;-58
2022/04/12 01:53:29;;;;;;;4.68;1.77;;;;;;;19.93;44.20;100961.88;5012756;28;20462;-59
2022/04/12 01:55:55;;;;;;;6.88;2.03;;;;;;;19.91;44.27;100955.91;5013135;28;20476;-58
2022/04/12 01:58:20;;;;;;;6.53;2.00;;;;;;;19.92;44.26;100954.94;5013271;28;20037;-58
2022/04/12 02:00:45;;;;;;;5.30;1.73;;;;;;;19.91;43.92;100958.53;5011981;28;20474;-57
2022/04/12 02:03:10;;;;;;;5.40;2.10;;;;;;;19.90;44.18;100957.72;5012768;28;20783;-58
2022/04/12 02:05:36;;;;;;;6.00;1.90;;;;;;;19.89;44.04;100957.84;5013020;28;20278;-58
2022/04/12 02:08:01;;;;;;;6.68;2.20;;;;;;;19.87;44.21;100960.63;5012272;28;20133;-58
2022/04/12 02:10:27;;;;;;;6.40;1.90;;;;;;;19.86;44.03;100964.22;5013177;28;20076;-58
2022/04/12 02:12:52;;;;;;;5.47;1.80;;;;;;;19.84;43.92;100966.16;5012862;28;20026;-58
2022/04/12 02:15:17;;;;;;;5.82;2.38;;;;;;;19.83;44.11;100964.50;5012129;28;20478;-58
2022/04/12 02:17:43;;;;;;;5.40;1.70;;;;;;;19.83;44.25;100961.84;5012977;28;20034;-58
2022/04/12 02:20:09;;;;;;;6.38;1.98;;;;;;;19.82;44.47;100960.19;5012791;28;20121;-58
2022/04/12 02:22:37;;;;;;;4.65;1.73;;;;;;;19.82;44.18;100948.75;5012136;28;20033;-59
2022/04/12 02:25:03;;;;;;;5.53;2.30;;;;;;;19.80;44.25;100956.81;5012862;28;20022;-59
2022/04/12 02:27:29;;;;;;;4.32;1.60;;;;;;;19.78;43.95;100956.13;5012964;28;20022;-58
2022/04/12 02:29:54;;;;;;;5.57;1.93;;;;;;;19.77;44.05;100959.72;5011976;28;20041;-58
2022/04/12 02:32:22;;;;;;;4.75;1.75;;;;;;;19.78;43.93;100953.47;5012802;28;20263;-58
2022/04/12 02:34:47;;;;;;;6.70;2.08;;;;;;;19.77;43.82;100953.63;5011947;28;20026;-58
2022/04/12 02:37:12;;;;;;;5.25;1.88;;;;;;;19.76;43.97;100947.50;5012671;28;20033;-58
2022/04/12 02:39:38;;;;;;;5.50;1.92;;;;;;;19.74;43.84;100947.59;5012905;28;20177;-58
2022/04/12 02:42:03;;;;;;;7.10;2.05;;;;;;;19.73;43.77;100951.19;5011929;28;20030;-58
2022/04/12 02:44:28;;;;;;;6.40;1.90;;;;;;;19.73;43.83;100947.72;5013495;28;20026;-58
2022/04/12 02:46:54;;;;;;;5.10;1.83;;;;;;;19.71;43.57;100941.72;5012445;28;20025;-58
2022/04/12 02:49:19;;;;;;;5.95;1.95;;;;;;;19.72;43.99;100935.47;5011961;28;20034;-58
2022/04/12 02:51:45;;;;;;;5.05;1.70;;;;;;;19.71;43.27;100941.72;5012882;28;20041;-58
2022/04/12 02:54:11;;;;;;;4.72;1.80;;;;;;;19.69;43.65;100933.09;5012476;28;20050;-58
2022/04/12 02:56:36;;;;;;;6.60;2.25;;;;;;;19.69;43.70;100938.38;5011827;28;20054;-58
2022/04/12 02:59:02;;;;;;;4.77;1.70;;;;;;;19.69;43.51;100931.28;5012379;28;20030;-58
2022/04/12 03:01:27;;;;;;;4.40;1.70;;;;;;;19.69;43.78;100933.94;5012477;28;20041;-58
2022/04/12 03:03:52;;;;;;;4.70;1.58;;;;;;;19.68;43.75;100934.06;5011329;28;20028;-58
2022/04/12 03:06:17;;;;;;;6.53;2.00;;;;;;;19.68;44.12;100931.44;5012469;28;20018;-58
2022/04/12 03:08:43;;;;;;;4.83;1.87;;;;;;;19.67;43.79;100927.09;5012728;28;20036;-58
2022/04/12 03:11:08;;;;;;;6.47;2.00;;;;;;;19.65;43.87;100914.00;5011522;28;20044;-58
2022/04/12 03:13:39;;;;;;;4.60;1.90;;;;;;;19.64;43.79;100911.50;5014649;28;20382;-56
2022/04/12 03:16:07;;;;;;;5.40;2.08;;;;;;;19.61;43.81;100912.59;5015798;28;20793;-58
2022/04/12 03:18:32;;;;;;;5.85;2.00;;;;;;;19.60;44.25;100912.72;5015329;28;20024;-57
2022/04/12 03:20:58;;;;;;;5.23;1.80;;;;;;;19.59;43.97;100903.97;5015976;28;20113;-58
2022/04/12 03:23:23;;;;;;;6.27;2.20;;;;;;;19.59;43.97;100906.59;5016135;28;20295;-58
2022/04/12 03:25:50;;;;;;;5.68;2.10;;;;;;;19.60;44.22;100894.22;5014934;28;20058;-58
2022/04/12 03:28:15;;;;;;;5.68;2.13;;;;;;;19.59;44.06;100896.03;5015516;28;20045;-58
2022/04/12 03:30:41;;;;;;;4.88;1.90;;;;;;;19.60;43.88;100900.38;5015972;28;20381;-58
2022/04/12 03:33:06;;;;;;;6.25;2.00;;;;;;;19.58;43.73;100891.72;5014798;28;20026;-58
2022/04/12 03:35:32;;;;;;;5.33;1.90;;;;;;;19.56;43.67;100886.56;5015951;28;20038;-57
2022/04/12 03:38:00;;;;;;;5.00;1.70;;;;;;;19.56;43.57;100899.78;5014717;28;20759;-57
2022/04/12 03:40:27;;;;;;;7.55;2.03;;;;;;;19.55;43.83;100906.03;5015813;28;20033;-58
2022/04/12 03:42:53;;;;;;;5.22;2.00;;;;;;;19.54;43.68;100903.53;5015791;28;20029;-58
2022/04/12 03:45:18;;;;;;;6.45;2.00;;;;;;;19.52;43.42;100908.13;5014978;28;20022;-58
2022/04/12 03:47:46;;;;;;;7.13;2.17;;;;;;;19.51;44.04;100909.91;5015568;28;20014;-57
2022/04/12 03:50:11;;;;;;;6.85;2.17;;;;;;;19.52;43.54;100900.19;5015205;28;20488;-58
2022/04/12 03:52:37;;;;;;;6.10;2.00;;;;;;;19.52;44.18;100890.44;5014994;28;20026;-58
2022/04/12 03:55:04;;;;;;;8.30;2.30;;;;;;;19.54;44.25;100877.94;5015216;28;20100;-57
2022/04/12 03:57:30;;;;;;;5.28;1.98;;;;;;;19.58;44.40;100878.50;5015434;28;20494;-57
2022/04/12 03:59:56;;;;;;;5.75;2.10;;;;;;;19.61;44.39;100880.88;5014436;28;20030;-57
2022/04/12 04:02:21;;;;;;;6.57;1.85;;;;;;;19.66;44.53;100888.41;5015260;28;20378;-57
2022/04/12 04:04:46;;;;;;;5.20;2.00;;;;;;;19.68;44.19;100889.13;5015608;28;20057;-57
2022/04/12 04:07:11;;;;;;;6.35;2.10;;;;;;;19.71;44.16;100889.69;5014897;28;20493;-58
2022/04/12 04:09:37;;;;;;;5.20;1.90;;;;;;;19.73;43.97;100889.56;5015852;28;20032;-57
2022/04/12 04:12:08;;;;;;;6.18;2.10;;;;;;;19.74;43.82;100888.56;5015222;28;20362;-57
2022/04/12 04:14:33;;;;;;;6.25;1.90;;;;;;;19.75;43.96;100884.97;5013398;28;20061;-58
2022/04/12 04:17:02;;;;;;;6.65;2.63;;;;;;;19.75;44.24;100884.97;5014640;28;20061;-58
2022/04/12 04:19:30;;;;;;;5.85;1.90;;;;;;;19.75;44.01;100885.78;5015270;28;20042;-57
2022/04/12 04:21:56;;;;;;;6.25;2.13;;;;;;;19.76;43.86;100881.38;5013926;28;20022;-57
2022/04/12 04:24:22;;;;;;;5.03;2.05;;;;;;;19.75;44.15;100882.31;5014545;28;20022;-58
2022/04/12 04:26:49;;;;;;;5.25;1.95;;;;;;;19.75;44.09;100879.66;5014940;28;20026;-58
2022/04/12 04:29:17;;;;;;;5.90;2.30;;;;;;;19.76;44.01;100878.75;5014017;28;20024;-57
2022/04/12 04:31:42;;;;;;;6.05;1.92;;;;;;;19.77;44.01;100884.84;5014806;28;20022;-58
2022/04/12 04:34:07;;;;;;;6.00;1.83;;;;;;;19.75;43.89;100887.59;5014428;28;20018;-58
2022/04/12 04:36:32;;;;;;;6.63;2.00;;;;;;;19.75;43.82;100884.97;5014516;28;20358;-58
2022/04/12 04:39:01;;;;;;;5.77;1.93;;;;;;;19.74;43.73;100880.63;5014398;28;20311;-57
2022/04/12 04:41:27;;;;;;;6.97;2.03;;;;;;;19.74;43.55;100884.13;5013662;28;20333;-57
2022/04/12 04:43:53;;;;;;;5.63;1.83;;;;;;;19.75;43.67;100896.38;5014270;28;20050;-57
2022/04/12 04:46:18;;;;;;;4.83;1.87;;;;;;;19.79;43.33;100904.91;5014628;28;20378;-57
2022/04/12 04:48:43;;;;;;;6.60;2.00;;;;;;;19.79;43.33;100920.78;5013806;28;20304;-58
2022/04/12 04:51:09;;;;;;;6.32;2.05;;;;;;;19.79;43.39;100923.44;5014182;28;20145;-58
2022/04/12 04:53:36;;;;;;;6.60;2.08;;;;;;;19.77;43.41;100920.06;5014271;28;20033;-57
2022/04/12 04:56:02;;;;;;;5.28;1.92;;;;;;;19.76;43.43;100931.63;5013174;28;20156;-57
2022/04/12 04:58:27;;;;;;;6.25;2.30;;;;;;;19.74;43.46;100930.88;5014141;28;20076;-58
2022/04/12 05:00:53;;;;;;;5.20;2.07;;;;;;;19.72;43.43;100931.00;5014079;28;20030;-58
2022/04/12 05:03:18;;;;;;;5.37;1.97;;;;;;;19.70;43.50;100924.19;5013163;28;20287;-58
2022/04/12 05:05:43;;;;;;;7.03;2.00;;;;;;;19.68;44.01;100921.69;5014138;28;20272;-57
2022/04/12 05:08:09;;;;;;;4.78;1.73;;;;;;;19.69;44.06;100912.78;5013872;28;20037;-57
2022/04/12 05:10:34;;;;;;;8.25;2.35;;;;;;;19.70;44.75;100905.69;5013276;28;20026;-57
2022/04/12 05:13:01;;;;;;;5.80;2.03;;;;;;;19.74;45.05;100904.44;5013436;28;20448;-57
2022/04/12 05:15:27;;;;;;;6.38;2.08;;;;;;;19.75;45.45;100900.81;5014281;28;20105;-57
2022/04/12 05:17:56;;;;;;;6.78;2.17;;;;;;;19.78;45.45;100913.81;5013059;28;20431;-57
2022/04/12 05:20:24;;;;;;;6.05;1.75;;;;;;;19.81;45.70;100921.47;5013004;28;20018;-57
2022/04/12 05:22:50;;;;;;;8.27;2.10;;;;;;;19.83;45.42;100919.53;5013628;28;20060;-57
2022/04/12 05:25:16;;;;;;;4.90;1.75;;;;;;;19.84;45.19;100915.09;5013005;28;20473;-56
2022/04/12 05:27:43;;;;;;;4.80;1.73;;;;;;;19.85;45.00;100914.97;5013755;28;20026;-57
2022/04/12 05:30:10;;;;;;;5.10;1.90;;;;;;;19.87;44.96;100907.72;5013520;28;20037;-56
2022/04/12 05:32:36;;;;;;;4.15;1.50;;;;;;;19.90;44.88;100894.22;5012989;28;20075;-57
2022/04/12 05:35:03;;;;;;;6.25;2.47;;;;;;;19.91;45.17;100898.53;5012854;28;20020;-62
2022/04/12 05:37:31;;;;;;;6.03;1.83;;;;;;;19.92;44.92;100900.22;5012914;28;20034;-57
2022/04/12 05:39:56;;;;;;;5.07;1.85;;;;;;;19.92;44.78;100910.78;5013230;28;20108;-57
2022/04/12 05:42:23;;;;;;;6.72;1.83;;;;;;;19.93;44.81;100911.63;5013445;28;20129;-57
2022/04/12 05:44:48;;;;;;;4.90;1.70;;;;;;;19.93;44.87;100901.91;5012491;28;20443;-58
2022/04/12 05:47:14;;;;;;;5.03;1.50;;;;;;;19.97;44.82;100907.75;5013622;28;20018;-57
2022/04/12 05:49:39;;;;;;;5.72;1.75;;;;;;;19.98;44.91;100912.06;5013698;28;20076;-58
2022/04/12 05:52:06;;;;;;;6.55;1.80;;;;;;;20.03;45.23;100912.50;5012404;28;20489;-58
2022/04/12 05:54:31;;;;;;;6.80;2.17;;;;;;;20.08;45.10;100922.69;5013481;28;20091;-58
2022/04/12 05:56:56;;;;;;;5.88;1.90;;;;;;;20.10;44.38;100923.38;5012879;28;20484;-57
2022/04/12 05:59:24;;;;;;;5.17;1.90;;;;;;;20.13;43.67;100916.97;5012639;28;20022;-58
2022/04/12 06:01:50;;;;;;;5.50;2.35;;;;;;;20.09;43.47;100919.91;5012860;28;20045;-58
2022/04/12 06:04:16;;;;;;;4.25;1.75;;;;;;;20.07;44.46;100915.69;5013423;28;20034;-58
2022/04/12 06:06:41;;;;;;;4.70;1.77;;;;;;;20.07;44.38;100913.88;5012513;28;20176;-58
2022/04/12 06:09:07;;;;;;;5.70;1.65;;;;;;;20.05;44.68;100913.19;5012935;28;20514;-58
2022/04/12 06:11:33;;;;;;;5.88;1.60;;;;;;;20.07;44.56;100921.00;5012740;28;20025;-58
2022/04/12 06:13:58;;;;;;;7.07;1.60;;;;;;;20.07;44.54;100913.88;5011841;28;20046;-58
2022/04/12 06:16:24;;;;;;;5.70;1.80;;;;;;;20.10;44.68;100918.09;5013123;28;20053;-58
2022/04/12 06:18:49;;;;;;;4.30;1.52;;;;;;;20.14;44.18;100908.91;5012575;28;20470;-57
2022/04/12 06:21:14;;;;;;;4.60;1.60;;;;;;;20.20;44.58;100913.66;5012183;28;20101;-57
2022/04/12 06:23:40;;;;;;;5.03;1.50;;;;;;;20.22;44.43;100921.44;5012853;28;20164;-58
2022/04/12 06:26:05;;;;;;;6.80;1.75;;;;;;;20.22;44.71;100919.66;5012597;28;20033;-58
2022/04/12 06:28:30;;;;;;;4.43;1.70;;;;;;;20.24;44.76;100920.34;5012330;28;20072;-58
2022/04/12 06:30:59;;;;;;;5.85;1.67;;;;;;;20.25;44.82;100923.81;5012797;28;20051;-58
2022/04/12 06:33:25;;;;;;;4.75;1.52;;;;;;;20.26;44.70;100922.84;5013018;28;20412;-57
2022/04/12 06:35:51;;;;;;;5.57;1.67;;;;;;;20.29;44.90;100928.69;5011902;28;20105;-58
2022/04/12 06:38:16;;;;;;;4.68;1.60;;;;;;;20.31;44.57;100931.19;5012916;28;20022;-57
2022/04/12 06:40:44;;;;;;;6.07;1.70;;;;;;;20.33;44.77;100931.94;5012582;28;20112;-57
2022/04/12 06:43:10;;;;;;;6.03;1.92;;;;;;;20.35;44.97;100924.69;5012170;28;20026;-57
2022/04/12 06:45:38;;;;;;;4.30;1.80;;;;;;;20.37;44.77;100921.91;5012776;28;20393;-58
2022/04/12 06:48:04;;;;;;;5.03;1.98;;;;;;;20.38;45.12;100919.09;5015019;28;20038;-58
2022/04/12 06:50:30;;;;;;;6.05;2.88;;;;;;;20.38;45.08;100915.63;5016711;28;20084;-59
2022/04/12 06:52:57;;;;;;;4.95;1.67;;;;;;;20.42;45.51;100915.19;5016784;28;20030;-60
2022/04/12 06:55:23;;;;;;;6.45;1.95;;;;;;;20.46;45.33;100907.84;5015815;28;20030;-60
2022/04/12 06:57:48;;;;;;;6.72;1.95;;;;;;;20.51;45.90;100916.19;5016537;28;20072;-60
2022/04/12 07:00:14;;;;;;;5.47;2.00;;;;;;;20.58;45.17;100924.41;5016894;28;20026;-61
2022/04/12 07:02:40;;;;;;;5.38;1.70;;;;;;;20.64;45.37;100916.78;5015921;28;20037;-60
2022/04/12 07:05:06;;;;;;;6.32;2.80;;;;;;;20.71;44.93;100917.06;5016302;28;20029;-60
2022/04/12 07:07:32;;;;;;;5.88;2.00;;;;;;;20.77;44.79;100915.66;5016344;28;20022;-60
2022/04/12 07:09:57;;;;;;;5.60;1.73;;;;;;;20.81;44.94;100899.34;5015489;28;20033;-61
2022/04/12 07:12:26;;;;;;;5.90;1.92;;;;;;;20.87;44.89;100899.75;5016508;28;20029;-60
2022/04/12 07:14:51;;;;;;;6.00;1.75;;;;;;;20.90;44.56;100902.13;5015804;28;20049;-61
2022/04/12 07:17:20;;;;;;;4.45;1.77;;;;;;;20.95;44.69;100908.69;5015453;28;20394;-60
2022/04/12 07:19:45;;;;;;;4.38;1.80;;;;;;;20.93;44.23;100913.25;5016126;28;20032;-59
2022/04/12 07:22:10;;;;;;;5.90;2.03;;;;;;;20.93;44.39;100913.25;5016004;28;20029;-59
2022/04/12 07:24:38;;;;;;;6.90;1.97;;;;;;;20.94;44.42;100914.94;5015386;28;20116;-59
2022/04/12 07:27:04;;;;;;;3.22;1.33;;;;;;;20.93;44.37;100912.44;5015830;28;20785;-59
2022/04/12 07:29:30;;;;;;;4.68;1.80;;;;;;;20.91;44.56;100907.28;5016177;28;20049;-59
2022/04/12 07:31:56;;;;;;;6.95;2.10;;;;;;;20.90;44.13;100904.78;5015102;28;20105;-59
2022/04/12 07:34:22;;;;;;;5.80;1.90;;;;;;;20.92;44.39;100905.47;5015944;28;20049;-60
2022/04/12 07:36:49;;;;;;;4.55;1.42;;;;;;;20.90;44.70;100908.25;5015944;28;20026;-58
2022/04/12 07:39:30;;;;;;;4.90;1.70;;;;;;;20.93;44.24;100917.75;5015069;28;20030;-57
2022/04/12 07:41:55;;;;;;;7.82;2.20;;;;;;;20.92;43.55;100908.97;5015667;28;20064;-62
2022/04/12 07:44:21;;;;;;;6.10;2.03;;;;;;;20.93;43.83;100907.13;5015100;28;20484;-59
2022/04/12 07:46:46;;;;;;;5.25;2.08;;;;;;;20.94;44.07;100914.13;5015733;28;20025;-59
2022/04/12 07:49:12;;;;;;;5.18;1.48;;;;;;;20.93;43.47;100915.91;5015154;28;20109;-59
2022/04/12 07:51:39;;;;;;;6.90;1.83;;;;;;;20.91;43.33;100909.94;5014725;28;20339;-58
2022/04/12 07:54:04;;;;;;;4.85;1.67;;;;;;;20.92;44.25;100913.41;5015318;28;20056;-59
2022/04/12 07:56:33;;;;;;;7.18;2.10;;;;;;;20.91;44.26;100901.97;5015496;28;20057;-59
2022/04/12 07:58:59;;;;;;;7.18;2.35;;;;;;;20.91;44.54;100903.81;5013372;28;20470;-59
2022/04/12 08:01:25;;;;;;;6.60;1.90;;;;;;;20.92;44.75;100913.41;5015269;28;20117;-58
2022/04/12 08:03:50;;;;;;;8.90;1.92;;;;;;;20.90;44.97;100916.19;5014949;28;20125;-58
2022/04/12 08:06:16;;;;;;;5.57;1.75;;;;;;;20.91;44.89;100922.34;5014716;28;20026;-58
2022/04/12 08:08:41;;;;;;;6.18;1.80;;;;;;;20.88;44.55;100918.16;5015277;28;20104;-58
2022/04/12 08:11:07;;;;;;;5.38;1.80;;;;;;;20.86;44.92;100911.34;5015132;28;20097;-58
2022/04/12 08:13:34;;;;;;;5.97;1.70;;;;;;;20.86;45.16;100914.00;5014457;28;20053;-58
2022/04/12 08:15:59;;;;;;;5.22;1.90;;;;;;;20.84;45.22;100914.13;5014789;28;20053;-58
2022/04/12 08:18:37;;;;;;;7.03;2.40;;;;;;;20.83;44.76;100915.94;5014988;28;20465;-58
2022/04/12 08:21:03;;;;;;;6.72;1.88;;;;;;;20.83;45.04;100920.41;5014080;28;20481;-58
2022/04/12 08:23:28;;;;;;;6.03;1.80;;;;;;;20.81;44.95;100917.88;5014806;28;20030;-58
2022/04/12 08:25:53;;;;;;;6.10;1.73;;;;;;;20.79;44.93;100914.56;5014767;28;20758;-58
2022/04/12 08:28:19;;;;;;;6.35;1.83;;;;;;;20.80;45.13;100920.69;5014159;28;20298;-59
2022/04/12 08:30:45;;;;;;;4.95;1.75;;;;;;;20.78;45.19;100912.03;5014870;28;20025;-58
2022/04/12 08:33:11;;;;;;;6.95;2.15;;;;;;;20.78;44.97;100923.47;5014516;28;20033;-59
2022/04/12 08:35:37;;;;;;;4.65;1.65;;;;;;;20.77;45.01;100920.97;5014176;28;20014;-58
2022/04/12 08:38:02;;;;;;;5.15;1.77;;;;;;;20.74;45.56;100911.47;5014568;28;20026;-58
2022/04/12 08:40:27;;;;;;;3.78;1.58;;;;;;;20.74;45.49;100908.00;5014120;28;20029;-57
2022/04/12 08:42:54;;;;;;;5.97;1.63;;;;;;;20.72;45.51;100904.66;5014247;28;20258;-58
2022/04/12 08:45:20;;;;;;;6.38;1.90;;;;;;;20.71;45.56;100898.53;5014556;28;20034;-60
2022/04/12 08:47:45;;;;;;;5.82;1.70;;;;;;;20.69;45.64;100895.16;5013805;28;20040;-59
2022/04/12 08:50:11;;;;;;;10.27;1.92;;;;;;;20.67;45.43;100886.53;5014312;28;20060;-59
2022/04/12 08:52:37;;;;;;;6.05;1.67;;;;;;;20.68;45.66;100880.28;5014597;28;20397;-59
2022/04/12 08:55:04;;;;;;;5.55;1.50;;;;;;;20.64;45.78;100879.69;5013502;28;20382;-58
2022/04/12 08:57:29;;;;;;;6.45;1.65;;;;;;;20.66;45.93;100879.56;5014395;28;20429;-59
2022/04/12 08:59:55;;;;;;;5.43;1.42;;;;;;;20.65;45.94;100872.63;5014178;28;20014;-59
2022/04/12 09:02:20;;;;;;;7.78;1.60;;;;;;;20.64;45.69;100871.75;5014115;28;20026;-59
2022/04/12 09:04:45;;;;;;;4.63;1.60;;;;;;;20.64;45.79;100887.66;5015445;28;20037;-59
2022/04/12 09:07:12;;;;;;;4.57;1.58;;;;;;;20.63;45.90;100891.25;5015177;28;20028;-58
2022/04/12 09:09:40;;;;;;;7.25;1.77;;;;;;;20.62;45.81;100886.09;5014448;28;20363;-59
2022/04/12 09:12:09;;;;;;;6.82;2.05;;;;;;;20.61;45.87;100877.28;5014487;28;20163;-58
2022/04/12 09:14:52;;;;;;;5.05;1.50;;;;;;;20.60;46.17;100869.50;5013910;28;20132;-59
2022/04/12 09:17:35;;;;;;;8.23;1.90;;;;;;;20.61;46.16;100865.88;5013416;28;20057;-59
2022/04/12 09:20:10;;;;;;;6.60;1.67;;;;;;;20.58;46.18;100852.94;5013848;28;20030;-59
2022/04/12 09:22:35;;;;;;;4.90;1.52;;;;;;;20.56;46.57;100853.06;5013172;28;20034;-59
2022/04/12 09:25:03;;;;;;;5.43;1.60;;;;;;;20.55;46.38;100847.91;5013588;28;20022;-59
2022/04/12 09:27:30;;;;;;;5.38;1.38;;;;;;;20.54;46.49;100849.72;5013586;28;20026;-59
2022/04/12 09:30:01;;;;;;;7.95;2.05;;;;;;;20.53;46.55;100847.22;5012518;28;20082;-59
2022/04/12 09:32:28;;;;;;;6.63;2.00;;;;;;;20.53;46.59;100848.03;5013772;28;20031;-58
2022/04/12 09:34:55;;;;;;;8.30;2.25;;;;;;;20.55;46.12;100843.44;5013316;28;20385;-58
2022/04/12 09:37:26;;;;;;;6.28;2.10;;;;;;;20.54;46.66;100846.25;5012907;28;20037;-59
2022/04/12 09:40:00;;;;;;;7.22;1.70;;;;;;;20.53;46.08;100833.97;5013172;28;20038;-59
2022/04/12 09:42:50;;;;;;;7.13;2.88;;;;;;;20.52;45.63;100857.00;5013611;28;20026;-59
2022/04/12 09:45:27;;;;;;;6.90;1.55;;;;;;;20.50;45.16;100855.44;5012897;28;20034;-58
2022/04/12 09:47:55;;;;;;;5.95;1.80;;;;;;;20.41;45.96;100849.16;5013257;28;20048;-59
2022/04/12 09:50:22;;;;;;;6.43;1.58;;;;;;;20.51;46.48;100863.25;5013508;28;20029;-58
2022/04/12 09:53:01;;;;;;;4.18;1.25;;;;;;;20.51;46.23;100857.13;5012633;28;20033;-59
2022/04/12 09:55:37;;;;;;;5.18;1.52;;;;;;;20.51;46.45;100859.78;5013694;28;20033;-59
2022/04/12 09:58:05;;;;;;;6.57;1.80;;;;;;;20.51;46.52;100854.47;5012292;28;20442;-59
2022/04/12 10:00:31;;;;;;;4.93;1.35;;;;;;;20.49;46.75;100857.25;5013185;28;20022;-59
2022/04/12 10:03:08;;;;;;;6.13;1.65;;;;;;;20.50;46.83;100850.97;5013079;28;20037;-60
2022/04/12 10:05:34;;;;;;;6.60;1.67;;;;;;;20.50;47.10;100848.31;5012503;28;20050;-60
2022/04/12 10:08:02;;;;;;;5.95;2.00;;;;;;;20.50;46.91;100844.84;5012777;28;20482;-58
2022/04/12 10:10:28;;;;;;;5.03;1.38;;;;;;;20.49;47.02;100828.16;5013147;28;20026;-59
2022/04/12 10:12:54;;;;;;;6.28;1.70;;;;;;;20.47;46.92;100822.13;5011924;28;20037;-59
2022/04/12 10:15:21;;;;;;;6.28;1.73;;;;;;;20.51;46.74;100823.53;5012815;28;20049;-59
2022/04/12 10:17:48;;;;;;;5.00;1.80;;;;;;;20.50;46.69;100821.84;5013318;28;20084;-59
2022/04/12 10:20:15;;;;;;;5.85;1.50;;;;;;;20.51;46.78;100822.72;5012251;28;20033;-59
2022/04/12 10:22:41;;;;;;;7.07;1.45;;;;;;;20.52;47.03;100827.88;5012959;28;20029;-63
2022/04/12 10:25:08;;;;;;;7.30;1.70;;;;;;;20.57;47.56;100822.13;5014139;28;20018;-61
2022/04/12 10:27:34;;;;;;;6.85;1.92;;;;;;;20.59;48.07;100805.13;5012826;28;20367;-60
2022/04/12 10:30:21;;;;;;;4.38;1.70;;;;;;;20.63;48.11;100801.22;5013074;28;20757;-59
2022/04/12 10:33:08;;;;;;;6.80;1.52;;;;;;;20.64;48.30;100805.56;5013094;28;20477;-60
2022/04/12 10:35:42;;;;;;;6.05;2.25;;;;;;;20.66;48.29;100810.72;5013271;28;20151;-58
2022/04/12 10:38:09;;;;;;;5.47;2.05;;;;;;;20.68;48.09;100800.84;5012618;28;20474;-58
2022/04/12 10:40:35;;;;;;;6.00;1.67;;;;;;;20.70;48.01;100801.53;5012125;28;20036;-58
2022/04/12 10:43:03;;;;;;;6.15;1.45;;;;;;;20.73;48.20;100803.03;5012569;28;20030;-58
2022/04/12 10:45:34;;;;;;;5.22;1.52;;;;;;;20.75;48.07;100804.56;5013146;28;20069;-58
2022/04/12 10:48:01;;;;;;;6.72;1.85;;;;;;;20.76;48.02;100800.94;5011740;28;20022;-59
2022/04/12 10:50:42;;;;;;;6.97;1.83;;;;;;;20.78;47.92;100804.28;5012828;28;20030;-63
2022/04/12 10:53:11;;;;;;;7.72;1.90;;;;;;;20.79;47.83;100798.03;5012583;28;20026;-61
2022/04/12 10:55:41;;;;;;;6.93;1.88;;;;;;;20.82;48.32;100797.75;5012283;28;20052;-61
2022/04/12 10:58:12;;;;;;;7.47;2.35;;;;;;;20.83;48.27;100793.25;5012304;28;20025;-57
2022/04/12 11:00:41;;;;;;;7.57;1.55;;;;;;;20.81;48.28;100784.63;5012490;28;20383;-59
2022/04/12 11:03:06;;;;;;;5.93;1.75;;;;;;;20.83;48.22;100780.84;5011536;28;20057;-61
2022/04/12 11:05:34;;;;;;;6.50;1.60;;;;;;;20.83;47.37;100788.78;5012613;28;20057;-60
2022/04/12 11:08:04;;;;;;;5.15;1.60;;;;;;;20.86;47.47;100794.81;5012670;28;20122;-60
2022/04/12 11:10:32;;;;;;;5.95;1.63;;;;;;;20.89;48.08;100795.34;5014098;28;20022;-60
2022/04/12 11:13:06;;;;;;;7.55;1.80;;;;;;;20.92;47.75;100794.19;5013347;28;20026;-60
2022/04/12 11:15:33;;;;;;;5.65;1.80;;;;;;;20.96;47.75;100804.38;5012016;28;20379;-59
2022/04/12 11:18:10;;;;;;;5.57;1.45;;;;;;;20.99;47.83;100809.38;5013063;28;20018;-60
2022/04/12 11:20:40;;;;;;;7.40;1.70;;;;;;;21.00;47.60;100795.16;5013007;28;20057;-61
2022/04/12 11:23:12;;;;;;;6.80;2.00;;;;;;;21.04;46.56;100789.56;5011592;28;20033;-60
2022/04/12 11:25:47;;;;;;;6.63;2.22;;;;;;;21.07;45.46;100794.59;5014588;28;20058;-60